sensor_id;sensor_type;location;lat;lon;timestamp;temperature;humidity
51765;DHT22;37835;53.256;6.456;2023-04-02T00:02:28;3.50;99.90
51765;DHT22;37835;53.256;6.456;2023-04-02T00:07:43;3.40;99.90
51765;DHT22;37835;53.256;6.456;2023-04-02T00:15:28;3.30;99.90
51765;DHT22;37835;53.256;6.456;2023-04-02T00:17:56;3.20;99.90
51765;DHT22;37835;53.256;6.456;2023-04-02T00:20:21;3.20;99.90
51765;DHT22;37835;53.256;6.456;2023-04-02T00:22:48;3.20;99.90
51765;DHT22;37835;53.256;6.456;2023-04-02T00:25:14;3.10;99.90
51765;DHT22;37835;53.256;6.456;2023-04-02T00:27:41;3.10;99.90
51765;DHT22;37835;53.256;6.456;2023-04-02T00:30:07;3.10;99.90
51765;DHT22;37835;53.256;6.456;2023-04-02T00:32:35;3.00;99.90
51765;DHT22;37835;53.256;6.456;2023-04-02T00:35:02;3.30;99.90
51765;DHT22;37835;53.256;6.456;2023-04-02T00:37:30;2.90;99.90
51765;DHT22;37835;53.256;6.456;2023-04-02T00:42:44;2.90;99.90
51765;DHT22;37835;53.256;6.456;2023-04-02T00:45:31;2.80;99.90
51765;DHT22;37835;53.256;6.456;2023-04-02T00:48:24;2.90;99.90
51765;DHT22;37835;53.256;6.456;2023-04-02T00:50:53;2.80;99.90
51765;DHT22;37835;53.256;6.456;2023-04-02T00:53:29;2.80;99.90
51765;DHT22;37835;53.256;6.456;2023-04-02T00:55:57;2.80;99.90
51765;DHT22;37835;53.256;6.456;2023-04-02T00:58:42;2.70;99.90
51765;DHT22;37835;53.256;6.456;2023-04-02T01:01:17;2.90;99.90
51765;DHT22;37835;53.256;6.456;2023-04-02T01:03:52;2.70;99.90
51765;DHT22;37835;53.256;6.456;2023-04-02T01:06:18;2.60;99.90
51765;DHT22;37835;53.256;6.456;2023-04-02T01:09:24;2.60;99.90
51765;DHT22;37835;53.256;6.456;2023-04-02T01:11:56;3.40;99.90
51765;DHT22;37835;53.256;6.456;2023-04-02T01:25:18;2.50;99.90
51765;DHT22;37835;53.256;6.456;2023-04-02T01:27:53;2.40;99.90
51765;DHT22;37835;53.256;6.456;2023-04-02T01:30:21;2.40;99.90
51765;DHT22;37835;53.256;6.456;2023-04-02T01:32:48;2.40;99.90
51765;DHT22;37835;53.256;6.456;2023-04-02T01:35:14;2.30;99.90
51765;DHT22;37835;53.256;6.456;2023-04-02T01:37:53;2.30;99.90
51765;DHT22;37835;53.256;6.456;2023-04-02T01:40:36;2.30;99.90
51765;DHT22;37835;53.256;6.456;2023-04-02T01:43:24;2.30;99.90
51765;DHT22;37835;53.256;6.456;2023-04-02T01:45:52;2.20;99.90
51765;DHT22;37835;53.256;6.456;2023-04-02T01:48:21;2.20;99.90
51765;DHT22;37835;53.256;6.456;2023-04-02T01:50:50;2.00;99.90
51765;DHT22;37835;53.256;6.456;2023-04-02T01:53:20;2.20;99.90
51765;DHT22;37835;53.256;6.456;2023-04-02T01:55:56;2.10;99.90
51765;DHT22;37835;53.256;6.456;2023-04-02T01:58:24;2.10;99.90
51765;DHT22;37835;53.256;6.456;2023-04-02T02:01:03;2.10;99.90
51765;DHT22;37835;53.256;6.456;2023-04-02T02:03:34;0.50;99.90
51765;DHT22;37835;53.256;6.456;2023-04-02T02:06:01;2.00;99.90
51765;DHT22;37835;53.256;6.456;2023-04-02T02:08:38;2.00;99.90
51765;DHT22;37835;53.256;6.456;2023-04-02T02:11:06;1.50;99.90
51765;DHT22;37835;53.256;6.456;2023-04-02T02:13:32;2.00;99.90
51765;DHT22;37835;53.256;6.456;2023-04-02T02:15:59;1.90;99.90
51765;DHT22;37835;53.256;6.456;2023-04-02T02:18:26;1.90;99.90
51765;DHT22;37835;53.256;6.456;2023-04-02T02:20:53;1.90;99.90
51765;DHT22;37835;53.256;6.456;2023-04-02T02:23:20;1.90;99.90
51765;DHT22;37835;53.256;6.456;2023-04-02T02:25:46;1.90;99.90
51765;DHT22;37835;53.256;6.456;2023-04-02T02:28:25;0.00;99.90
51765;DHT22;37835;53.256;6.456;2023-04-02T02:31:01;1.90;99.90
51765;DHT22;37835;53.256;6.456;2023-04-02T02:33:36;1.80;99.90
51765;DHT22;37835;53.256;6.456;2023-04-02T02:36:12;1.80;99.90
51765;DHT22;37835;53.256;6.456;2023-04-02T02:38:59;1.80;99.90
51765;DHT22;37835;53.256;6.456;2023-04-02T02:41:53;1.70;99.90
51765;DHT22;37835;53.256;6.456;2023-04-02T02:44:23;1.70;99.90
51765;DHT22;37835;53.256;6.456;2023-04-02T02:47:01;1.70;99.90
51765;DHT22;37835;53.256;6.456;2023-04-02T02:49:34;0.50;99.90
51765;DHT22;37835;53.256;6.456;2023-04-02T02:54:36;1.60;99.90
51765;DHT22;37835;53.256;6.456;2023-04-02T02:57:06;1.60;99.90
51765;DHT22;37835;53.256;6.456;2023-04-02T02:59:32;2.50;99.90
51765;DHT22;37835;53.256;6.456;2023-04-02T03:01:59;1.60;99.90
51765;DHT22;37835;53.256;6.456;2023-04-02T03:04:27;2.60;99.90
51765;DHT22;37835;53.256;6.456;2023-04-02T03:06:56;1.50;99.90
51765;DHT22;37835;53.256;6.456;2023-04-02T03:09:35;0.80;99.90
51765;DHT22;37835;53.256;6.456;2023-04-02T03:15:02;2.40;99.90
51765;DHT22;37835;53.256;6.456;2023-04-02T03:17:46;1.50;99.90
51765;DHT22;37835;53.256;6.456;2023-04-02T03:20:19;1.50;99.90
51765;DHT22;37835;53.256;6.456;2023-04-02T03:22:59;1.50;99.90
51765;DHT22;37835;53.256;6.456;2023-04-02T03:25:38;1.40;99.90
51765;DHT22;37835;53.256;6.456;2023-04-02T03:28:13;0.60;99.90
51765;DHT22;37835;53.256;6.456;2023-04-02T03:30:48;1.40;99.90
51765;DHT22;37835;53.256;6.456;2023-04-02T03:33:34;1.50;99.90
51765;DHT22;37835;53.256;6.456;2023-04-02T03:36:25;1.40;99.90
51765;DHT22;37835;53.256;6.456;2023-04-02T03:42:25;1.40;99.90
51765;DHT22;37835;53.256;6.456;2023-04-02T03:45:11;1.40;99.90
51765;DHT22;37835;53.256;6.456;2023-04-02T03:47:52;1.40;99.90
51765;DHT22;37835;53.256;6.456;2023-04-02T03:52:58;1.30;99.90
51765;DHT22;37835;53.256;6.456;2023-04-02T03:55:27;1.40;99.90
51765;DHT22;37835;53.256;6.456;2023-04-02T04:00:58;1.30;99.90
51765;DHT22;37835;53.256;6.456;2023-04-02T04:03:30;1.30;99.90
51765;DHT22;37835;53.256;6.456;2023-04-02T04:08:53;1.30;99.90
51765;DHT22;37835;53.256;6.456;2023-04-02T04:11:25;1.20;99.90
51765;DHT22;37835;53.256;6.456;2023-04-02T04:14:05;1.20;99.90
51765;DHT22;37835;53.256;6.456;2023-04-02T04:16:40;1.20;99.90
51765;DHT22;37835;53.256;6.456;2023-04-02T04:19:21;1.10;99.90
51765;DHT22;37835;53.256;6.456;2023-04-02T04:21:50;1.10;99.90
51765;DHT22;37835;53.256;6.456;2023-04-02T04:24:24;1.10;99.90
51765;DHT22;37835;53.256;6.456;2023-04-02T04:32:33;1.10;99.90
51765;DHT22;37835;53.256;6.456;2023-04-02T04:35:23;0.50;99.90
51765;DHT22;37835;53.256;6.456;2023-04-02T04:37:56;1.80;99.90
51765;DHT22;37835;53.256;6.456;2023-04-02T04:40:33;1.10;99.90
51765;DHT22;37835;53.256;6.456;2023-04-02T04:43:04;-0.80;99.90
51765;DHT22;37835;53.256;6.456;2023-04-02T04:48:03;1.00;99.90
51765;DHT22;37835;53.256;6.456;2023-04-02T04:50:45;1.00;99.90
51765;DHT22;37835;53.256;6.456;2023-04-02T04:53:16;1.00;99.90
51765;DHT22;37835;53.256;6.456;2023-04-02T04:55:45;1.00;99.90
51765;DHT22;37835;53.256;6.456;2023-04-02T05:00:59;1.00;99.90
51765;DHT22;37835;53.256;6.456;2023-04-02T05:06:16;0.90;99.90
51765;DHT22;37835;53.256;6.456;2023-04-02T05:08:46;0.90;99.90
51765;DHT22;37835;53.256;6.456;2023-04-02T05:11:27;0.90;99.90
51765;DHT22;37835;53.256;6.456;2023-04-02T05:14:04;0.90;99.90
51765;DHT22;37835;53.256;6.456;2023-04-02T05:16:47;0.90;99.90
51765;DHT22;37835;53.256;6.456;2023-04-02T05:22:22;1.10;99.90
51765;DHT22;37835;53.256;6.456;2023-04-02T05:25:06;0.90;99.90
51765;DHT22;37835;53.256;6.456;2023-04-02T05:27:38;0.90;99.90
51765;DHT22;37835;53.256;6.456;2023-04-02T05:30:37;0.50;99.90
51765;DHT22;37835;53.256;6.456;2023-04-02T05:33:05;0.90;99.90
51765;DHT22;37835;53.256;6.456;2023-04-02T05:35:43;0.90;99.90
51765;DHT22;37835;53.256;6.456;2023-04-02T05:38:18;0.90;99.90
51765;DHT22;37835;53.256;6.456;2023-04-02T05:40:47;0.90;99.90
51765;DHT22;37835;53.256;6.456;2023-04-02T05:43:17;2.00;99.90
51765;DHT22;37835;53.256;6.456;2023-04-02T05:45:50;0.90;99.90
51765;DHT22;37835;53.256;6.456;2023-04-02T05:48:20;0.90;99.90
51765;DHT22;37835;53.256;6.456;2023-04-02T05:50:49;1.00;99.90
51765;DHT22;37835;53.256;6.456;2023-04-02T05:53:23;1.00;99.90
51765;DHT22;37835;53.256;6.456;2023-04-02T05:58:34;1.20;99.90
51765;DHT22;37835;53.256;6.456;2023-04-02T06:01:41;1.10;99.90
51765;DHT22;37835;53.256;6.456;2023-04-02T06:07:03;1.60;99.90
51765;DHT22;37835;53.256;6.456;2023-04-02T06:09:44;1.10;99.90
51765;DHT22;37835;53.256;6.456;2023-04-02T06:12:30;1.20;99.90
51765;DHT22;37835;53.256;6.456;2023-04-02T06:14:59;1.30;99.90
51765;DHT22;37835;53.256;6.456;2023-04-02T06:17:25;1.30;99.90
51765;DHT22;37835;53.256;6.456;2023-04-02T06:19:52;1.30;99.90
51765;DHT22;37835;53.256;6.456;2023-04-02T06:22:32;1.40;99.90
51765;DHT22;37835;53.256;6.456;2023-04-02T06:25:21;2.70;99.90
51765;DHT22;37835;53.256;6.456;2023-04-02T06:27:49;1.50;99.90
51765;DHT22;37835;53.256;6.456;2023-04-02T06:30:23;1.50;99.90
51765;DHT22;37835;53.256;6.456;2023-04-02T06:32:50;1.10;99.90
51765;DHT22;37835;53.256;6.456;2023-04-02T06:35:16;1.60;99.90
51765;DHT22;37835;53.256;6.456;2023-04-02T06:37:44;1.70;99.90
51765;DHT22;37835;53.256;6.456;2023-04-02T06:43:35;1.80;99.90
51765;DHT22;37835;53.256;6.456;2023-04-02T06:46:29;1.80;99.90
51765;DHT22;37835;53.256;6.456;2023-04-02T06:49:12;0.80;99.90
51765;DHT22;37835;53.256;6.456;2023-04-02T06:51:39;1.90;99.90
51765;DHT22;37835;53.256;6.456;2023-04-02T06:54:12;2.00;99.90
51765;DHT22;37835;53.256;6.456;2023-04-02T06:56:41;2.10;99.90
51765;DHT22;37835;53.256;6.456;2023-04-02T06:59:08;2.10;99.90
51765;DHT22;37835;53.256;6.456;2023-04-02T07:01:42;2.20;99.90
51765;DHT22;37835;53.256;6.456;2023-04-02T07:04:09;2.20;99.90
51765;DHT22;37835;53.256;6.456;2023-04-02T07:06:35;2.30;99.90
51765;DHT22;37835;53.256;6.456;2023-04-02T07:09:04;2.40;99.90
51765;DHT22;37835;53.256;6.456;2023-04-02T07:11:31;2.60;99.90
51765;DHT22;37835;53.256;6.456;2023-04-02T07:13:56;2.50;99.90
51765;DHT22;37835;53.256;6.456;2023-04-02T07:16:24;2.60;99.90
51765;DHT22;37835;53.256;6.456;2023-04-02T07:18:51;2.00;99.90
51765;DHT22;37835;53.256;6.456;2023-04-02T07:21:17;2.70;99.90
51765;DHT22;37835;53.256;6.456;2023-04-02T07:23:43;2.80;99.90
51765;DHT22;37835;53.256;6.456;2023-04-02T07:26:13;2.80;99.90
51765;DHT22;37835;53.256;6.456;2023-04-02T07:28:39;2.90;99.90
51765;DHT22;37835;53.256;6.456;2023-04-02T07:31:15;3.20;99.90
51765;DHT22;37835;53.256;6.456;2023-04-02T07:33:41;3.00;99.90
51765;DHT22;37835;53.256;6.456;2023-04-02T07:36:08;3.10;99.90
51765;DHT22;37835;53.256;6.456;2023-04-02T07:38:35;3.20;99.90
51765;DHT22;37835;53.256;6.456;2023-04-02T07:41:05;3.20;99.90
51765;DHT22;37835;53.256;6.456;2023-04-02T07:43:31;3.40;99.90
51765;DHT22;37835;53.256;6.456;2023-04-02T07:45:57;3.40;99.90
51765;DHT22;37835;53.256;6.456;2023-04-02T07:48:22;3.50;99.90
51765;DHT22;37835;53.256;6.456;2023-04-02T07:50:48;2.60;99.90
51765;DHT22;37835;53.256;6.456;2023-04-02T07:53:31;3.60;99.90
51765;DHT22;37835;53.256;6.456;2023-04-02T07:56:00;3.70;99.90
51765;DHT22;37835;53.256;6.456;2023-04-02T07:58:30;3.70;99.90
51765;DHT22;37835;53.256;6.456;2023-04-02T08:00:58;3.80;99.90
51765;DHT22;37835;53.256;6.456;2023-04-02T08:03:24;3.80;99.90
51765;DHT22;37835;53.256;6.456;2023-04-02T08:05:51;3.80;99.90
51765;DHT22;37835;53.256;6.456;2023-04-02T08:08:18;3.90;99.90
51765;DHT22;37835;53.256;6.456;2023-04-02T08:10:43;4.00;99.90
51765;DHT22;37835;53.256;6.456;2023-04-02T08:13:09;4.00;99.90
51765;DHT22;37835;53.256;6.456;2023-04-02T08:15:35;4.00;99.90
51765;DHT22;37835;53.256;6.456;2023-04-02T08:18:00;4.00;99.90
51765;DHT22;37835;53.256;6.456;2023-04-02T08:20:26;4.20;99.90
51765;DHT22;37835;53.256;6.456;2023-04-02T08:22:51;4.00;99.90
51765;DHT22;37835;53.256;6.456;2023-04-02T08:25:17;4.10;99.90
51765;DHT22;37835;53.256;6.456;2023-04-02T08:27:45;4.10;99.90
51765;DHT22;37835;53.256;6.456;2023-04-02T08:30:11;4.20;99.90
51765;DHT22;37835;53.256;6.456;2023-04-02T08:32:37;4.20;99.90
51765;DHT22;37835;53.256;6.456;2023-04-02T08:35:06;4.20;99.90
51765;DHT22;37835;53.256;6.456;2023-04-02T08:37:31;4.30;99.90
51765;DHT22;37835;53.256;6.456;2023-04-02T08:39:57;4.40;99.90
51765;DHT22;37835;53.256;6.456;2023-04-02T08:42:45;4.60;99.90
51765;DHT22;37835;53.256;6.456;2023-04-02T08:45:27;4.70;99.90
51765;DHT22;37835;53.256;6.456;2023-04-02T08:47:57;4.10;99.90
51765;DHT22;37835;53.256;6.456;2023-04-02T08:52:58;5.40;99.90
51765;DHT22;37835;53.256;6.456;2023-04-02T08:55:35;5.40;99.90
51765;DHT22;37835;53.256;6.456;2023-04-02T09:00:41;5.80;99.90
51765;DHT22;37835;53.256;6.456;2023-04-02T09:05:40;6.10;99.90
51765;DHT22;37835;53.256;6.456;2023-04-02T09:08:25;6.30;99.90
51765;DHT22;37835;53.256;6.456;2023-04-02T09:11:07;6.40;99.90
51765;DHT22;37835;53.256;6.456;2023-04-02T09:13:36;6.60;99.90
51765;DHT22;37835;53.256;6.456;2023-04-02T09:16:16;6.60;99.90
51765;DHT22;37835;53.256;6.456;2023-04-02T09:18:43;6.60;99.90
51765;DHT22;37835;53.256;6.456;2023-04-02T09:23:48;6.80;99.90
51765;DHT22;37835;53.256;6.456;2023-04-02T09:26:28;6.70;99.90
51765;DHT22;37835;53.256;6.456;2023-04-02T09:31:44;6.80;99.90
51765;DHT22;37835;53.256;6.456;2023-04-02T09:34:31;6.90;99.90
51765;DHT22;37835;53.256;6.456;2023-04-02T09:37:13;7.00;99.90
51765;DHT22;37835;53.256;6.456;2023-04-02T09:39:38;7.00;99.90
51765;DHT22;37835;53.256;6.456;2023-04-02T09:42:33;7.10;99.90
51765;DHT22;37835;53.256;6.456;2023-04-02T09:45:23;7.20;99.90
51765;DHT22;37835;53.256;6.456;2023-04-02T09:47:50;7.20;99.90
51765;DHT22;37835;53.256;6.456;2023-04-02T09:50:33;7.30;99.90
51765;DHT22;37835;53.256;6.456;2023-04-02T09:53:28;7.40;99.90
51765;DHT22;37835;53.256;6.456;2023-04-02T09:56:10;7.40;99.90
51765;DHT22;37835;53.256;6.456;2023-04-02T09:58:36;7.40;99.90
51765;DHT22;37835;53.256;6.456;2023-04-02T10:01:02;7.50;99.90
51765;DHT22;37835;53.256;6.456;2023-04-02T10:03:31;7.60;99.90
51765;DHT22;37835;53.256;6.456;2023-04-02T10:06:09;7.60;99.90
51765;DHT22;37835;53.256;6.456;2023-04-02T10:08:36;7.70;99.90
51765;DHT22;37835;53.256;6.456;2023-04-02T10:11:07;7.70;99.90
51765;DHT22;37835;53.256;6.456;2023-04-02T10:14:16;7.80;99.90
51765;DHT22;37835;53.256;6.456;2023-04-02T10:16:50;7.90;99.90
51765;DHT22;37835;53.256;6.456;2023-04-02T10:21:58;8.00;99.90
51765;DHT22;37835;53.256;6.456;2023-04-02T10:24:27;8.10;99.90
51765;DHT22;37835;53.256;6.456;2023-04-02T10:29:45;8.30;99.90
51765;DHT22;37835;53.256;6.456;2023-04-02T10:43:20;8.60;99.90
51765;DHT22;37835;53.256;6.456;2023-04-02T10:45:55;8.70;99.90
51765;DHT22;37835;53.256;6.456;2023-04-02T10:54:19;8.80;99.90
51765;DHT22;37835;53.256;6.456;2023-04-02T10:56:50;8.90;99.90
51765;DHT22;37835;53.256;6.456;2023-04-02T10:59:24;9.00;99.90
51765;DHT22;37835;53.256;6.456;2023-04-02T11:01:53;9.10;99.90
51765;DHT22;37835;53.256;6.456;2023-04-02T11:04:42;9.10;99.90
51765;DHT22;37835;53.256;6.456;2023-04-02T11:07:30;9.20;99.90
51765;DHT22;37835;53.256;6.456;2023-04-02T11:09:58;9.30;99.90
51765;DHT22;37835;53.256;6.456;2023-04-02T11:12:41;9.30;99.90
51765;DHT22;37835;53.256;6.456;2023-04-02T11:15:18;9.40;99.90
51765;DHT22;37835;53.256;6.456;2023-04-02T11:17:45;9.50;99.90
51765;DHT22;37835;53.256;6.456;2023-04-02T11:23:17;9.60;99.90
51765;DHT22;37835;53.256;6.456;2023-04-02T11:25:44;9.70;99.90
51765;DHT22;37835;53.256;6.456;2023-04-02T11:28:25;9.70;99.90
51765;DHT22;37835;53.256;6.456;2023-04-02T11:30:52;9.70;99.90
51765;DHT22;37835;53.256;6.456;2023-04-02T11:33:37;9.80;99.90
51765;DHT22;37835;53.256;6.456;2023-04-02T11:39:09;9.90;99.90
51765;DHT22;37835;53.256;6.456;2023-04-02T11:44:22;10.00;99.90
51765;DHT22;37835;53.256;6.456;2023-04-02T11:46:48;10.00;99.90
51765;DHT22;37835;53.256;6.456;2023-04-02T11:49:35;10.10;99.90
51765;DHT22;37835;53.256;6.456;2023-04-02T11:52:01;10.10;99.90
51765;DHT22;37835;53.256;6.456;2023-04-02T11:54:30;10.10;99.90
51765;DHT22;37835;53.256;6.456;2023-04-02T11:57:14;10.20;99.90
51765;DHT22;37835;53.256;6.456;2023-04-02T12:00:11;10.20;99.90
51765;DHT22;37835;53.256;6.456;2023-04-02T12:05:53;10.40;99.90
51765;DHT22;37835;53.256;6.456;2023-04-02T12:08:57;10.40;99.90
51765;DHT22;37835;53.256;6.456;2023-04-02T12:11:47;10.50;99.90
51765;DHT22;37835;53.256;6.456;2023-04-02T12:17:11;10.60;99.90
51765;DHT22;37835;53.256;6.456;2023-04-02T12:19:38;10.60;99.90
51765;DHT22;37835;53.256;6.456;2023-04-02T12:22:04;10.60;99.90
51765;DHT22;37835;53.256;6.456;2023-04-02T12:24:30;10.60;99.90
51765;DHT22;37835;53.256;6.456;2023-04-02T12:27:15;10.60;99.90
51765;DHT22;37835;53.256;6.456;2023-04-02T12:29:42;10.70;99.90
51765;DHT22;37835;53.256;6.456;2023-04-02T12:32:27;10.70;99.90
51765;DHT22;37835;53.256;6.456;2023-04-02T12:34:55;10.80;99.90
51765;DHT22;37835;53.256;6.456;2023-04-02T12:37:27;10.80;99.90
51765;DHT22;37835;53.256;6.456;2023-04-02T12:39:58;10.80;99.90
51765;DHT22;37835;53.256;6.456;2023-04-02T12:42:26;10.80;99.90
51765;DHT22;37835;53.256;6.456;2023-04-02T12:44:52;10.90;99.90
51765;DHT22;37835;53.256;6.456;2023-04-02T12:47:18;10.90;99.90
51765;DHT22;37835;53.256;6.456;2023-04-02T12:49:44;10.90;99.90
51765;DHT22;37835;53.256;6.456;2023-04-02T12:52:13;10.90;99.90
51765;DHT22;37835;53.256;6.456;2023-04-02T12:57:33;11.00;99.90
51765;DHT22;37835;53.256;6.456;2023-04-02T13:05:45;11.10;99.90
51765;DHT22;37835;53.256;6.456;2023-04-02T13:08:18;11.00;99.90
51765;DHT22;37835;53.256;6.456;2023-04-02T13:10:45;11.00;99.90
51765;DHT22;37835;53.256;6.456;2023-04-02T13:13:16;11.00;99.90
51765;DHT22;37835;53.256;6.456;2023-04-02T13:15:44;11.00;99.90
51765;DHT22;37835;53.256;6.456;2023-04-02T13:18:19;11.10;99.90
51765;DHT22;37835;53.256;6.456;2023-04-02T13:20:56;11.10;99.90
51765;DHT22;37835;53.256;6.456;2023-04-02T13:23:34;11.10;99.90
51765;DHT22;37835;53.256;6.456;2023-04-02T13:28:40;11.10;99.90
51765;DHT22;37835;53.256;6.456;2023-04-02T13:31:11;11.20;99.90
51765;DHT22;37835;53.256;6.456;2023-04-02T13:33:38;11.20;99.90
51765;DHT22;37835;53.256;6.456;2023-04-02T13:36:04;11.30;99.90
51765;DHT22;37835;53.256;6.456;2023-04-02T13:38:30;11.30;99.90
51765;DHT22;37835;53.256;6.456;2023-04-02T13:40:56;11.20;99.90
51765;DHT22;37835;53.256;6.456;2023-04-02T13:43:22;11.30;99.90
51765;DHT22;37835;53.256;6.456;2023-04-02T13:45:50;11.30;99.90
51765;DHT22;37835;53.256;6.456;2023-04-02T13:48:17;11.30;99.90
51765;DHT22;37835;53.256;6.456;2023-04-02T13:50:43;11.30;99.90
51765;DHT22;37835;53.256;6.456;2023-04-02T13:53:19;11.30;99.90
51765;DHT22;37835;53.256;6.456;2023-04-02T13:55:46;11.30;99.90
51765;DHT22;37835;53.256;6.456;2023-04-02T13:58:12;11.20;99.90
51765;DHT22;37835;53.256;6.456;2023-04-02T14:00:37;11.20;99.90
51765;DHT22;37835;53.256;6.456;2023-04-02T14:03:08;11.20;99.90
51765;DHT22;37835;53.256;6.456;2023-04-02T14:08:28;11.20;99.90
51765;DHT22;37835;53.256;6.456;2023-04-02T14:11:37;11.20;99.90
51765;DHT22;37835;53.256;6.456;2023-04-02T14:22:09;11.20;99.90
51765;DHT22;37835;53.256;6.456;2023-04-02T14:24:41;11.20;99.90
51765;DHT22;37835;53.256;6.456;2023-04-02T14:30:19;11.10;99.90
51765;DHT22;37835;53.256;6.456;2023-04-02T14:33:04;11.10;99.90
51765;DHT22;37835;53.256;6.456;2023-04-02T14:35:37;11.10;99.90
51765;DHT22;37835;53.256;6.456;2023-04-02T14:38:16;11.10;99.90
51765;DHT22;37835;53.256;6.456;2023-04-02T14:41:01;11.10;99.90
51765;DHT22;37835;53.256;6.456;2023-04-02T14:43:44;11.00;99.90
51765;DHT22;37835;53.256;6.456;2023-04-02T14:46:10;11.00;99.90
51765;DHT22;37835;53.256;6.456;2023-04-02T14:48:55;11.00;99.90
51765;DHT22;37835;53.256;6.456;2023-04-02T14:51:43;11.00;99.90
51765;DHT22;37835;53.256;6.456;2023-04-02T14:54:45;11.00;99.90
51765;DHT22;37835;53.256;6.456;2023-04-02T14:57:19;10.90;99.90
51765;DHT22;37835;53.256;6.456;2023-04-02T15:08:02;10.80;99.90
51765;DHT22;37835;53.256;6.456;2023-04-02T15:13:11;10.80;99.90
51765;DHT22;37835;53.256;6.456;2023-04-02T15:15:46;10.80;99.90
51765;DHT22;37835;53.256;6.456;2023-04-02T15:18:15;10.80;99.90
51765;DHT22;37835;53.256;6.456;2023-04-02T15:23:28;10.80;99.90
51765;DHT22;37835;53.256;6.456;2023-04-02T15:26:23;10.70;99.90
51765;DHT22;37835;53.256;6.456;2023-04-02T15:29:21;10.80;99.90
51765;DHT22;37835;53.256;6.456;2023-04-02T15:31:50;10.70;99.90
51765;DHT22;37835;53.256;6.456;2023-04-02T15:34:25;10.70;99.90
51765;DHT22;37835;53.256;6.456;2023-04-02T15:37:18;10.70;99.90
51765;DHT22;37835;53.256;6.456;2023-04-02T15:40:05;10.70;99.90
51765;DHT22;37835;53.256;6.456;2023-04-02T15:42:36;10.70;99.90
51765;DHT22;37835;53.256;6.456;2023-04-02T15:48:11;10.60;99.90
51765;DHT22;37835;53.256;6.456;2023-04-02T15:56:33;10.50;99.90
51765;DHT22;37835;53.256;6.456;2023-04-02T16:07:37;10.30;99.90
51765;DHT22;37835;53.256;6.456;2023-04-02T16:10:23;10.20;99.90
51765;DHT22;37835;53.256;6.456;2023-04-02T16:12:51;10.20;99.90
51765;DHT22;37835;53.256;6.456;2023-04-02T16:15:41;10.10;99.90
51765;DHT22;37835;53.256;6.456;2023-04-02T16:18:17;10.10;99.90
51765;DHT22;37835;53.256;6.456;2023-04-02T16:20:48;10.10;99.90
51765;DHT22;37835;53.256;6.456;2023-04-02T16:23:19;10.10;99.90
51765;DHT22;37835;53.256;6.456;2023-04-02T16:32:14;9.90;99.90
51765;DHT22;37835;53.256;6.456;2023-04-02T16:35:12;9.80;99.90
51765;DHT22;37835;53.256;6.456;2023-04-02T16:40:45;9.80;99.90
51765;DHT22;37835;53.256;6.456;2023-04-02T16:43:29;9.80;99.90
51765;DHT22;37835;53.256;6.456;2023-04-02T16:46:03;9.80;99.90
51765;DHT22;37835;53.256;6.456;2023-04-02T16:48:50;9.70;99.90
51765;DHT22;37835;53.256;6.456;2023-04-02T16:54:23;9.80;99.90
51765;DHT22;37835;53.256;6.456;2023-04-02T16:57:20;9.80;99.90
51765;DHT22;37835;53.256;6.456;2023-04-02T17:02:33;9.90;99.90
51765;DHT22;37835;53.256;6.456;2023-04-02T17:05:30;10.00;99.90
51765;DHT22;37835;53.256;6.456;2023-04-02T17:13:24;10.20;99.90
51765;DHT22;37835;53.256;6.456;2023-04-02T17:18:51;10.10;99.90
51765;DHT22;37835;53.256;6.456;2023-04-02T17:21:25;10.00;99.90
51765;DHT22;37835;53.256;6.456;2023-04-02T17:23:55;9.80;99.90
51765;DHT22;37835;53.256;6.456;2023-04-02T17:26:25;9.60;99.90
51765;DHT22;37835;53.256;6.456;2023-04-02T17:28:52;9.40;99.90
51765;DHT22;37835;53.256;6.456;2023-04-02T17:31:25;9.20;99.90
51765;DHT22;37835;53.256;6.456;2023-04-02T17:33:51;9.10;99.90
51765;DHT22;37835;53.256;6.456;2023-04-02T17:39:07;8.70;99.90
51765;DHT22;37835;53.256;6.456;2023-04-02T17:47:10;8.20;99.90
51765;DHT22;37835;53.256;6.456;2023-04-02T17:49:43;8.10;99.90
51765;DHT22;37835;53.256;6.456;2023-04-02T17:53:28;7.90;99.90
51765;DHT22;37835;53.256;6.456;2023-04-02T17:55:37;7.80;99.90
51765;DHT22;37835;53.256;6.456;2023-04-02T18:06:19;7.30;99.90
51765;DHT22;37835;53.256;6.456;2023-04-02T18:09:24;7.20;99.90
51765;DHT22;37835;53.256;6.456;2023-04-02T18:17:53;6.90;99.90
51765;DHT22;37835;53.256;6.456;2023-04-02T18:23:48;6.70;99.90
51765;DHT22;37835;53.256;6.456;2023-04-02T18:26:31;6.50;99.90
51765;DHT22;37835;53.256;6.456;2023-04-02T18:41:02;6.00;99.90
51765;DHT22;37835;53.256;6.456;2023-04-02T18:46:11;5.80;99.90
51765;DHT22;37835;53.256;6.456;2023-04-02T18:51:33;5.60;99.90
51765;DHT22;37835;53.256;6.456;2023-04-02T18:54:13;5.50;99.90
51765;DHT22;37835;53.256;6.456;2023-04-02T18:56:41;5.40;99.90
51765;DHT22;37835;53.256;6.456;2023-04-02T18:59:31;5.30;99.90
51765;DHT22;37835;53.256;6.456;2023-04-02T19:02:20;5.20;99.90
51765;DHT22;37835;53.256;6.456;2023-04-02T19:04:56;5.10;99.90
51765;DHT22;37835;53.256;6.456;2023-04-02T19:07:22;5.10;99.90
51765;DHT22;37835;53.256;6.456;2023-04-02T19:09:52;5.00;99.90
51765;DHT22;37835;53.256;6.456;2023-04-02T19:12:21;4.90;99.90
51765;DHT22;37835;53.256;6.456;2023-04-02T19:14:48;4.90;99.90
51765;DHT22;37835;53.256;6.456;2023-04-02T19:17:30;4.80;99.90
51765;DHT22;37835;53.256;6.456;2023-04-02T19:22:43;4.70;99.90
51765;DHT22;37835;53.256;6.456;2023-04-02T19:28:15;4.60;99.90
51765;DHT22;37835;53.256;6.456;2023-04-02T19:33:49;4.40;99.90
51765;DHT22;37835;53.256;6.456;2023-04-02T19:36:32;4.40;99.90
51765;DHT22;37835;53.256;6.456;2023-04-02T19:41:47;4.30;99.90
51765;DHT22;37835;53.256;6.456;2023-04-02T19:44:16;4.20;99.90
51765;DHT22;37835;53.256;6.456;2023-04-02T19:46:42;4.10;99.90
51765;DHT22;37835;53.256;6.456;2023-04-02T19:49:15;4.10;99.90
51765;DHT22;37835;53.256;6.456;2023-04-02T19:51:50;4.10;99.90
51765;DHT22;37835;53.256;6.456;2023-04-02T19:54:16;4.00;99.90
51765;DHT22;37835;53.256;6.456;2023-04-02T19:56:42;4.00;99.90
51765;DHT22;37835;53.256;6.456;2023-04-02T19:59:09;4.00;99.90
51765;DHT22;37835;53.256;6.456;2023-04-02T20:01:35;3.90;99.90
51765;DHT22;37835;53.256;6.456;2023-04-02T20:04:00;3.20;99.90
51765;DHT22;37835;53.256;6.456;2023-04-02T20:06:26;4.30;99.90
51765;DHT22;37835;53.256;6.456;2023-04-02T20:08:54;3.80;99.90
51765;DHT22;37835;53.256;6.456;2023-04-02T20:11:20;3.80;99.90
51765;DHT22;37835;53.256;6.456;2023-04-02T20:13:45;3.80;99.90
51765;DHT22;37835;53.256;6.456;2023-04-02T20:16:12;3.70;99.90
51765;DHT22;37835;53.256;6.456;2023-04-02T20:18:38;3.70;99.90
51765;DHT22;37835;53.256;6.456;2023-04-02T20:21:05;3.70;99.90
51765;DHT22;37835;53.256;6.456;2023-04-02T20:23:32;3.60;99.90
51765;DHT22;37835;53.256;6.456;2023-04-02T20:25:58;3.60;99.90
51765;DHT22;37835;53.256;6.456;2023-04-02T20:28:26;3.60;99.90
51765;DHT22;37835;53.256;6.456;2023-04-02T20:30:52;3.60;99.90
51765;DHT22;37835;53.256;6.456;2023-04-02T20:33:22;4.20;99.90